Kalitta B744 at Ningbo on Aug 7th 2023, runway excursion on landing

Last Update: August 7, 2023 / 11:39:22 GMT/Zulu time

Bookmark this article
Incident Facts

Date of incident
Aug 7, 2023

Classification
Incident

Flight number
K4-968

Destination
Ningbo, China

Aircraft Registration
N401KZ

Aircraft Type
Boeing 747-400

ICAO Type Designator
B744

Airport ICAO Code
ZSNB

A Kalitta Boeing 747-400 freighter, registration N401KZ performing flight K4-968 from Anchorage,AK (USA) to Ningbo (China), landed on Ningbo's runway 31 but veered right off the runway and came to a stop with all gear on soft surface about 32 meters off the right hand runway egde about 2200 meters/7200 feet down the runway at about 15:18L (07:18Z). There were no injuries, the aircraft sustained minor if any damage.

The airport reported a Kalitta Boeing 747 veered off the runway after landing. The crew has been accomodated, recovery works are under way.

Metars:
ZSNB 070900Z 32002MPS 290V350 9999 FEW010 SCT026 31/27 Q0998 NOSIG=
ZSNB 070800Z 31002MPS 9999 FEW010 FEW030CB 29/27 Q0998 RETS NOSIG=
ZSNB 070700Z 27002MPS 210V320 9999 -TSRA FEW008 BKN016 FEW030CB 27/27 Q0998 RESHRA BECMG TL0850 NSW=
ZSNB 070600Z 31004MPS 270V350 9999 SCT023 SCT030CB 34/27 Q0998 BECMG TL0700 TSRA=
ZSNB 070500Z 33003MPS 290V050 9999 FEW026 33/26 Q0998 NOSIG=
ZSNB 070400Z 32003MPS 230V030 9999 FEW026 33/26 Q0999 NOSIG=
ZSNB 070300Z 32003MPS 280V360 9999 FEW026 33/25 Q1000 NOSIG=
Aircraft Registration Data
Registration mark
N401KZ
Country of Registration
United States
Date of Registration
Llcfjhk jnchqbpA Subscribe to unlock
Manufacturer
BOEING
Aircraft Model / Type
747-481F
Number of Seats
ICAO Aircraft Type
B744
Year of Manufacture
Serial Number
Aircraft Address / Mode S Code (HEX)
Engine Count
Engine Manufacturer
Engine Model
Engine Type
Pounds of Thrust
Main Owner
JpgeipdpkjmngpjgmpnjqjfcigiedAnefAiemAkjgdmlpqkplbAcnqfgAbidicdccmAkmbicelffk Subscribe to unlock
Incident Facts

Date of incident
Aug 7, 2023

Classification
Incident

Flight number
K4-968

Destination
Ningbo, China

Aircraft Registration
N401KZ

Aircraft Type
Boeing 747-400

ICAO Type Designator
B744

Airport ICAO Code
ZSNB

This article is published under license from Avherald.com. © of text by Avherald.com.
Article source

You can read 2 more free articles without a subscription.

Subscribe now and continue reading without any limits!

Are you a subscriber? Login
Subscribe

Read unlimited articles and receive our daily update briefing. Gain better insights into what is happening in commercial aviation safety.

Send tip

Support AeroInside by sending a small tip amount.

Related articles

Newest articles

Subscribe today

Are you researching aviation incidents? Get access to AeroInside Insights, unlimited read access and receive the daily newsletter.

Pick your plan and subscribe

Partner

Blockaviation logo

A new way to document and demonstrate airworthiness compliance and aircraft value. Find out more.

ELITE Logo

ELITE Simulation Solutions is a leading global provider of Flight Simulation Training Devices, IFR training software as well as flight controls and related services. Find out more.

Blue Altitude Logo

Your regulation partner, specialists in aviation safety and compliance; providing training, auditing, and consultancy services. Find out more.

AeroInside Blog
Popular aircraft
Airbus A320
Boeing 737-800
Boeing 737-800 MAX
Popular airlines
American Airlines
United
Delta
Air Canada
Lufthansa
British Airways